Time;durP1;ratioP1;P1;durP2;ratioP2;P2;SDS_P1;SDS_P2;PMS_P1;PMS_P2;Temp;Humidity;BMP_temperature;BMP_pressure;BME280_temperature;BME280_humidity;BME280_pressure;Samples;Min_cycle;Max_cycle;Signal;HPM_P1;HPM_P2
2023/01/23 00:02:20;;;;;;;19.77;9.05;;;;;;;;;;5068222;28;20047;-67
2023/01/23 00:04:46;;;;;;;20.35;8.60;;;;;;;;;;5072429;28;20032;-67
2023/01/23 00:07:12;;;;;;;19.80;9.30;;;;;;;;;;5063292;28;20040;-67
2023/01/23 00:09:38;;;;;;;17.52;8.88;;;;;;;;;;5069793;28;20040;-67
2023/01/23 00:12:04;;;;;;;17.42;9.23;;;;;;;;;;5060888;28;20036;-68
2023/01/23 00:14:30;;;;;;;18.92;9.40;;;;;;;;;;5072527;28;20075;-67
2023/01/23 00:16:56;;;;;;;18.40;9.45;;;;;;;;;;5065533;28;20072;-67
2023/01/23 00:19:22;;;;;;;22.90;9.32;;;;;;;;;;5069612;28;20044;-68
2023/01/23 00:21:48;;;;;;;15.15;8.13;;;;;;;;;;5074056;28;20052;-68
2023/01/23 00:24:14;;;;;;;18.60;8.70;;;;;;;;;;5073673;28;20033;-68
2023/01/23 00:26:40;;;;;;;21.17;9.38;;;;;;;;;;5069841;28;20336;-68
2023/01/23 00:29:07;;;;;;;17.83;9.35;;;;;;;;;;5069853;28;20041;-67
2023/01/23 00:31:34;;;;;;;16.83;8.38;;;;;;;;;;5061284;28;20183;-67
2023/01/23 00:34:02;;;;;;;14.23;8.82;;;;;;;;;;5067431;28;20041;-67
2023/01/23 00:36:29;;;;;;;15.25;7.97;;;;;;;;;;5064140;28;20045;-68
2023/01/23 00:38:56;;;;;;;15.60;8.77;;;;;;;;;;5059066;28;20040;-67
2023/01/23 00:41:21;;;;;;;16.50;9.20;;;;;;;;;;5061567;28;20071;-68
2023/01/23 00:43:50;;;;;;;22.77;9.93;;;;;;;;;;5061666;28;20060;-67
2023/01/23 00:46:16;;;;;;;16.02;8.02;;;;;;;;;;5072491;28;20048;-67
2023/01/23 00:48:42;;;;;;;20.17;9.38;;;;;;;;;;5060810;28;20105;-67
2023/01/23 00:51:08;;;;;;;19.00;9.23;;;;;;;;;;5067305;28;20041;-68
2023/01/23 00:53:34;;;;;;;18.55;9.57;;;;;;;;;;5070575;28;20033;-68
2023/01/23 00:56:00;;;;;;;15.73;8.70;;;;;;;;;;5061463;28;20080;-68
2023/01/23 00:58:26;;;;;;;19.67;9.55;;;;;;;;;;5066847;28;20060;-68
2023/01/23 01:00:52;;;;;;;18.85;9.20;;;;;;;;;;5072516;28;20068;-68
2023/01/23 01:03:19;;;;;;;15.95;9.25;;;;;;;;;;5069259;28;20089;-68
2023/01/23 01:05:45;;;;;;;15.65;9.07;;;;;;;;;;5065144;28;20049;-68
2023/01/23 01:08:11;;;;;;;16.60;9.13;;;;;;;;;;5070360;28;20049;-67
2023/01/23 01:10:40;;;;;;;16.55;9.27;;;;;;;;;;5064927;28;20048;-68
2023/01/23 01:13:06;;;;;;;17.58;9.10;;;;;;;;;;5060323;28;20064;-67
2023/01/23 01:15:32;;;;;;;19.95;9.15;;;;;;;;;;5071389;28;20076;-68
2023/01/23 01:17:58;;;;;;;17.33;9.70;;;;;;;;;;5066818;28;20036;-68
2023/01/23 01:20:25;;;;;;;22.00;9.27;;;;;;;;;;5062644;28;20033;-68
2023/01/23 01:22:51;;;;;;;19.48;9.13;;;;;;;;;;5069773;28;20060;-68
2023/01/23 01:25:17;;;;;;;20.38;9.70;;;;;;;;;;5070977;28;20468;-67
2023/01/23 01:27:44;;;;;;;16.90;8.88;;;;;;;;;;5069603;28;20115;-68
2023/01/23 01:30:10;;;;;;;19.90;9.25;;;;;;;;;;5065457;28;20075;-68
2023/01/23 01:32:40;;;;;;;19.73;9.45;;;;;;;;;;5070848;28;20039;-66
2023/01/23 01:35:06;;;;;;;19.48;9.02;;;;;;;;;;5065921;28;20044;-68
2023/01/23 01:37:36;;;;;;;14.30;8.80;;;;;;;;;;5059693;28;20116;-68
2023/01/23 01:40:02;;;;;;;17.55;9.32;;;;;;;;;;5058373;28;20041;-68
2023/01/23 01:42:28;;;;;;;22.00;10.00;;;;;;;;;;5060553;28;20521;-68
2023/01/23 01:44:55;;;;;;;23.65;9.43;;;;;;;;;;5069576;28;20044;-68
2023/01/23 01:47:22;;;;;;;18.20;9.60;;;;;;;;;;5069854;28;20048;-68
2023/01/23 01:49:48;;;;;;;18.88;9.43;;;;;;;;;;5054319;28;20461;-68
2023/01/23 01:52:15;;;;;;;18.70;9.40;;;;;;;;;;5066672;28;20101;-68
2023/01/23 01:54:42;;;;;;;20.35;9.70;;;;;;;;;;5063816;28;20168;-68
2023/01/23 01:57:14;;;;;;;20.08;9.90;;;;;;;;;;5070574;28;20072;-68
2023/01/23 01:59:42;;;;;;;17.33;8.65;;;;;;;;;;5070674;28;20040;-68
2023/01/23 02:02:10;;;;;;;21.98;10.40;;;;;;;;;;5054960;28;20711;-68
2023/01/23 02:04:38;;;;;;;19.40;8.95;;;;;;;;;;5068936;28;20060;-68
2023/01/23 02:07:06;;;;;;;20.33;9.50;;;;;;;;;;5061482;28;20151;-68
2023/01/23 02:09:33;;;;;;;19.52;9.43;;;;;;;;;;5064438;28;20044;-67
2023/01/23 02:11:59;;;;;;;20.00;9.40;;;;;;;;;;5062921;28;20046;-68
2023/01/23 02:14:25;;;;;;;17.40;9.35;;;;;;;;;;5060894;28;20137;-68
2023/01/23 02:16:54;;;;;;;17.23;9.20;;;;;;;;;;5068702;28;20044;-68
2023/01/23 02:19:40;;;;;;;16.95;9.15;;;;;;;;;;5058313;28;20507;-68
2023/01/23 02:22:26;;;;;;;18.95;9.50;;;;;;;;;;5063399;28;20051;-68
2023/01/23 02:25:02;;;;;;;19.88;9.77;;;;;;;;;;5060498;28;20052;-67
2023/01/23 02:27:28;;;;;;;16.33;9.32;;;;;;;;;;5052320;28;20037;-68
2023/01/23 02:29:55;;;;;;;19.40;9.75;;;;;;;;;;5061900;28;20090;-68
2023/01/23 02:32:23;;;;;;;17.13;8.65;;;;;;;;;;5069676;28;20558;-68
2023/01/23 02:34:50;;;;;;;16.88;9.50;;;;;;;;;;5063131;28;20048;-68
2023/01/23 02:37:16;;;;;;;17.35;9.25;;;;;;;;;;5063607;28;20051;-68
2023/01/23 02:39:42;;;;;;;19.30;9.20;;;;;;;;;;5062276;28;20040;-68
2023/01/23 02:42:09;;;;;;;17.80;9.23;;;;;;;;;;5058799;28;20036;-68
2023/01/23 02:44:35;;;;;;;16.75;8.98;;;;;;;;;;5062839;28;20482;-68
2023/01/23 02:47:02;;;;;;;21.42;10.25;;;;;;;;;;5065551;28;20098;-68
2023/01/23 02:49:29;;;;;;;16.80;9.18;;;;;;;;;;5052041;28;20076;-68
2023/01/23 02:51:55;;;;;;;18.45;10.05;;;;;;;;;;5061181;28;20124;-68
2023/01/23 02:54:22;;;;;;;21.90;9.45;;;;;;;;;;5070680;28;20072;-68
2023/01/23 02:56:48;;;;;;;15.88;9.77;;;;;;;;;;5062709;28;20148;-68
2023/01/23 03:01:59;;;;;;;18.23;8.98;;;;;;;;;;5063715;28;20087;-68
2023/01/23 03:04:25;;;;;;;16.98;9.77;;;;;;;;;;5067531;28;20482;-68
2023/01/23 03:06:51;;;;;;;17.33;9.20;;;;;;;;;;5056301;28;20049;-68
2023/01/23 03:09:17;;;;;;;23.15;9.50;;;;;;;;;;5082819;22;20040;-63
2023/01/23 03:11:44;;;;;;;19.25;9.88;;;;;;;;;;5069845;28;20032;-63
2023/01/23 03:14:12;;;;;;;17.90;8.80;;;;;;;;;;5068730;28;20478;-63
2023/01/23 03:16:39;;;;;;;23.45;10.18;;;;;;;;;;5070703;28;20033;-62
2023/01/23 03:19:07;;;;;;;23.75;10.48;;;;;;;;;;5059417;28;20056;-62
2023/01/23 03:21:34;;;;;;;16.88;9.35;;;;;;;;;;5056229;28;20487;-62
2023/01/23 03:24:02;;;;;;;18.27;9.40;;;;;;;;;;5050453;28;20406;-63
2023/01/23 03:26:28;;;;;;;19.63;9.85;;;;;;;;;;5058737;28;20398;-62
2023/01/23 03:31:39;;;;;;;15.93;9.13;;;;;;;;;;5071286;28;20129;-63
2023/01/23 03:34:05;;;;;;;21.63;10.32;;;;;;;;;;5054720;28;20091;-62
2023/01/23 03:36:31;;;;;;;20.58;10.75;;;;;;;;;;5050857;28;20124;-63
2023/01/23 03:41:44;;;;;;;18.45;9.63;;;;;;;;;;5061837;28;20167;-63
2023/01/23 03:44:10;;;;;;;23.00;10.05;;;;;;;;;;5054752;28;20079;-63
2023/01/23 03:46:36;;;;;;;21.90;10.02;;;;;;;;;;5061975;28;20036;-62
2023/01/23 03:49:02;;;;;;;19.23;9.98;;;;;;;;;;5053186;28;20038;-62
2023/01/23 03:51:28;;;;;;;21.38;9.98;;;;;;;;;;5058072;28;20035;-62
2023/01/23 03:53:54;;;;;;;21.23;10.45;;;;;;;;;;5060767;28;20033;-62
2023/01/23 03:56:20;;;;;;;23.23;10.43;;;;;;;;;;5049708;28;20033;-62
2023/01/23 03:58:46;;;;;;;19.77;10.30;;;;;;;;;;5049690;28;20045;-62
2023/01/23 04:01:12;;;;;;;18.65;10.15;;;;;;;;;;5059882;28;20039;-62
2023/01/23 04:03:38;;;;;;;16.33;10.52;;;;;;;;;;5057290;28;20041;-62
2023/01/23 04:06:04;;;;;;;20.23;10.27;;;;;;;;;;5050999;28;20218;-62
2023/01/23 04:08:31;;;;;;;19.75;10.55;;;;;;;;;;5057410;28;20041;-62
2023/01/23 04:11:00;;;;;;;20.10;10.55;;;;;;;;;;5058881;28;20036;-62
2023/01/23 04:13:26;;;;;;;20.65;10.60;;;;;;;;;;5053981;28;20445;-62
2023/01/23 04:15:52;;;;;;;18.80;10.27;;;;;;;;;;5059582;28;20041;-62
2023/01/23 04:18:18;;;;;;;18.70;9.55;;;;;;;;;;5062164;28;20036;-62
2023/01/23 04:20:44;;;;;;;26.42;11.88;;;;;;;;;;5051871;28;20029;-62
2023/01/23 04:23:10;;;;;;;20.45;9.88;;;;;;;;;;5064454;28;20119;-62
2023/01/23 04:25:36;;;;;;;19.67;10.50;;;;;;;;;;5062369;28;20040;-62
2023/01/23 04:28:02;;;;;;;21.30;10.55;;;;;;;;;;5062936;28;20041;-62
2023/01/23 04:30:28;;;;;;;18.75;10.60;;;;;;;;;;5058992;28;20091;-62
2023/01/23 04:32:54;;;;;;;22.92;10.82;;;;;;;;;;5068709;28;20052;-62
2023/01/23 04:35:20;;;;;;;20.27;11.05;;;;;;;;;;5055328;28;20064;-62
2023/01/23 04:37:46;;;;;;;18.10;10.05;;;;;;;;;;5061386;28;20158;-62
2023/01/23 04:40:12;;;;;;;23.60;11.18;;;;;;;;;;5065943;28;20410;-62
2023/01/23 04:42:38;;;;;;;20.02;10.60;;;;;;;;;;5060390;28;20036;-62
2023/01/23 04:45:04;;;;;;;22.38;9.57;;;;;;;;;;5052415;28;20036;-62
2023/01/23 04:47:30;;;;;;;20.55;10.23;;;;;;;;;;5064299;28;20387;-62
2023/01/23 04:49:56;;;;;;;19.90;10.90;;;;;;;;;;5055504;28;20045;-62
2023/01/23 04:52:22;;;;;;;22.13;11.18;;;;;;;;;;5057239;28;20077;-62
2023/01/23 04:54:48;;;;;;;20.15;11.43;;;;;;;;;;5062768;28;20076;-62
2023/01/23 04:57:14;;;;;;;25.70;11.20;;;;;;;;;;5065529;28;20542;-62
2023/01/23 04:59:40;;;;;;;18.83;10.32;;;;;;;;;;5053237;28;20029;-62
2023/01/23 05:02:06;;;;;;;23.58;10.85;;;;;;;;;;5052727;28;20029;-62
2023/01/23 05:04:32;;;;;;;20.45;10.80;;;;;;;;;;5051129;28;20032;-62
2023/01/23 05:06:58;;;;;;;25.35;10.60;;;;;;;;;;5055370;28;20043;-62
2023/01/23 05:09:24;;;;;;;22.05;10.68;;;;;;;;;;5061607;28;20413;-62
2023/01/23 05:11:50;;;;;;;20.35;10.40;;;;;;;;;;5063855;28;20047;-62
2023/01/23 05:14:16;;;;;;;25.90;11.35;;;;;;;;;;5051564;28;20052;-62
2023/01/23 05:16:42;;;;;;;20.25;10.50;;;;;;;;;;5060380;28;20052;-62
2023/01/23 05:19:08;;;;;;;25.20;11.38;;;;;;;;;;5055764;28;20533;-62
2023/01/23 05:21:34;;;;;;;17.60;10.73;;;;;;;;;;5066099;28;20044;-62
2023/01/23 05:24:00;;;;;;;21.38;10.98;;;;;;;;;;5055782;28;20508;-62
2023/01/23 05:26:26;;;;;;;17.75;10.27;;;;;;;;;;5052748;28;20037;-62
2023/01/23 05:28:52;;;;;;;20.90;11.13;;;;;;;;;;5056787;28;20045;-62
2023/01/23 05:31:18;;;;;;;20.92;10.52;;;;;;;;;;5046216;28;20402;-62
2023/01/23 05:33:44;;;;;;;19.45;10.50;;;;;;;;;;5053307;28;20048;-62
2023/01/23 05:36:10;;;;;;;20.08;10.25;;;;;;;;;;5053318;28;20041;-62
2023/01/23 05:38:36;;;;;;;22.08;11.85;;;;;;;;;;5054495;28;20418;-62
2023/01/23 05:41:03;;;;;;;20.95;10.50;;;;;;;;;;5065004;28;20086;-62
2023/01/23 05:43:29;;;;;;;19.33;11.23;;;;;;;;;;5057997;28;20045;-62
2023/01/23 05:45:55;;;;;;;21.73;10.57;;;;;;;;;;5065137;28;20044;-62
2023/01/23 05:48:21;;;;;;;20.75;9.52;;;;;;;;;;5059001;28;20100;-62
2023/01/23 05:50:46;;;;;;;23.95;10.77;;;;;;;;;;5054896;28;20059;-62
2023/01/23 05:53:12;;;;;;;20.67;10.38;;;;;;;;;;5066786;28;20043;-62
2023/01/23 05:55:38;;;;;;;21.60;10.63;;;;;;;;;;5059374;28;20453;-62
2023/01/23 05:58:04;;;;;;;20.85;10.85;;;;;;;;;;5068944;28;20033;-62
2023/01/23 06:00:30;;;;;;;20.42;10.15;;;;;;;;;;5051982;28;20037;-62
2023/01/23 06:02:56;;;;;;;17.83;10.63;;;;;;;;;;5053238;28;20037;-62
2023/01/23 06:05:23;;;;;;;20.30;10.63;;;;;;;;;;5065462;28;20089;-62
2023/01/23 06:07:49;;;;;;;18.65;10.07;;;;;;;;;;5053534;28;20048;-62
2023/01/23 06:10:15;;;;;;;20.00;10.57;;;;;;;;;;5056224;28;20437;-62
2023/01/23 06:12:41;;;;;;;19.38;10.23;;;;;;;;;;5059155;28;20112;-62
2023/01/23 06:15:07;;;;;;;20.17;10.43;;;;;;;;;;5052301;28;20202;-62
2023/01/23 06:17:33;;;;;;;22.85;10.15;;;;;;;;;;5067242;28;20032;-62
2023/01/23 06:19:59;;;;;;;21.33;10.68;;;;;;;;;;5060676;28;20033;-62
2023/01/23 06:22:25;;;;;;;17.50;10.20;;;;;;;;;;5045149;28;20094;-62
2023/01/23 06:24:51;;;;;;;22.55;11.48;;;;;;;;;;5070178;28;20040;-61
2023/01/23 06:27:17;;;;;;;20.95;10.73;;;;;;;;;;5071145;28;20501;-62
2023/01/23 06:29:43;;;;;;;21.63;10.40;;;;;;;;;;5054987;28;20045;-62
2023/01/23 06:32:09;;;;;;;21.08;10.40;;;;;;;;;;5058492;28;20115;-62
2023/01/23 06:34:35;;;;;;;19.30;10.48;;;;;;;;;;5068499;28;20037;-62
2023/01/23 06:37:01;;;;;;;20.08;10.45;;;;;;;;;;5050591;28;20040;-62
2023/01/23 06:39:29;;;;;;;22.98;10.93;;;;;;;;;;5050603;28;20509;-62
2023/01/23 06:41:55;;;;;;;22.90;10.38;;;;;;;;;;5054603;28;20041;-62
2023/01/23 06:44:21;;;;;;;17.67;9.52;;;;;;;;;;5059438;28;20067;-62
2023/01/23 06:46:47;;;;;;;19.05;10.88;;;;;;;;;;5058501;28;20477;-62
2023/01/23 06:49:13;;;;;;;17.13;9.57;;;;;;;;;;5048701;28;21439;-62
2023/01/23 06:51:39;;;;;;;19.42;10.45;;;;;;;;;;5063170;28;20508;-62
2023/01/23 06:54:05;;;;;;;18.38;10.30;;;;;;;;;;5066926;28;20044;-62
2023/01/23 06:56:31;;;;;;;16.33;10.05;;;;;;;;;;5055069;28;20090;-62
2023/01/23 06:58:57;;;;;;;18.45;9.90;;;;;;;;;;5054745;28;20426;-62
2023/01/23 07:01:25;;;;;;;15.60;10.02;;;;;;;;;;5043413;28;20033;-62
2023/01/23 07:03:51;;;;;;;20.05;10.40;;;;;;;;;;5048537;28;20036;-62
2023/01/23 07:06:17;;;;;;;22.42;10.73;;;;;;;;;;5060835;28;20050;-62
2023/01/23 07:08:43;;;;;;;21.60;11.43;;;;;;;;;;5052652;28;20441;-62
2023/01/23 07:11:09;;;;;;;19.23;10.63;;;;;;;;;;5059300;28;20169;-62
2023/01/23 07:13:35;;;;;;;20.55;10.30;;;;;;;;;;5061484;28;20055;-62
2023/01/23 07:16:01;;;;;;;20.63;10.65;;;;;;;;;;5046194;28;20399;-62
2023/01/23 07:18:29;;;;;;;21.90;10.57;;;;;;;;;;5047272;28;20029;-62
2023/01/23 07:20:55;;;;;;;23.33;10.40;;;;;;;;;;5043127;28;20577;-63
2023/01/23 07:23:21;;;;;;;22.88;11.48;;;;;;;;;;5054077;28;20036;-62
2023/01/23 07:25:47;;;;;;;22.92;10.75;;;;;;;;;;5046326;28;20040;-62
2023/01/23 07:28:13;;;;;;;19.05;10.98;;;;;;;;;;5051952;28;20040;-62
2023/01/23 07:30:40;;;;;;;19.65;10.40;;;;;;;;;;5060403;28;20056;-63
2023/01/23 07:33:06;;;;;;;20.05;11.05;;;;;;;;;;5045419;28;20056;-62
2023/01/23 07:35:32;;;;;;;26.45;11.98;;;;;;;;;;5049702;28;20045;-62
2023/01/23 07:37:58;;;;;;;18.25;11.00;;;;;;;;;;5049146;28;20063;-62
2023/01/23 07:40:24;;;;;;;18.70;11.02;;;;;;;;;;5044647;28;20033;-62
2023/01/23 07:42:50;;;;;;;22.23;11.00;;;;;;;;;;5063988;28;20479;-62
2023/01/23 07:45:16;;;;;;;21.25;10.95;;;;;;;;;;5053456;28;20029;-62
2023/01/23 07:47:42;;;;;;;19.95;10.63;;;;;;;;;;5058279;28;20033;-62
2023/01/23 07:50:10;;;;;;;18.50;10.10;;;;;;;;;;5057480;28;20045;-62
2023/01/23 07:52:36;;;;;;;16.40;10.55;;;;;;;;;;5058945;28;20067;-62
2023/01/23 07:55:02;;;;;;;20.00;10.75;;;;;;;;;;5049329;28;20415;-63
2023/01/23 07:57:28;;;;;;;22.48;11.38;;;;;;;;;;5049077;28;20045;-62
2023/01/23 07:59:54;;;;;;;19.92;11.02;;;;;;;;;;5048152;28;20095;-62
2023/01/23 08:02:20;;;;;;;20.92;10.55;;;;;;;;;;5050429;28;20494;-62
2023/01/23 08:04:46;;;;;;;17.65;10.07;;;;;;;;;;5053172;28;20076;-62
2023/01/23 08:07:12;;;;;;;20.67;10.43;;;;;;;;;;5049064;28;20052;-62
2023/01/23 08:09:39;;;;;;;19.40;10.73;;;;;;;;;;5053971;28;20037;-62
2023/01/23 08:12:05;;;;;;;22.65;10.88;;;;;;;;;;5065725;28;20032;-62
2023/01/23 08:14:31;;;;;;;16.05;9.45;;;;;;;;;;5055850;28;20090;-62
2023/01/23 08:16:57;;;;;;;19.92;10.25;;;;;;;;;;5043849;28;20055;-62
2023/01/23 08:19:26;;;;;;;16.52;10.10;;;;;;;;;;5052776;28;20029;-63
2023/01/23 08:21:52;;;;;;;20.58;10.55;;;;;;;;;;5059078;28;20037;-63
2023/01/23 08:24:19;;;;;;;18.63;10.77;;;;;;;;;;5067614;28;20407;-62
2023/01/23 08:26:45;;;;;;;16.83;9.75;;;;;;;;;;5054293;28;20066;-62
2023/01/23 08:29:11;;;;;;;19.80;10.45;;;;;;;;;;5052714;28;20076;-62
2023/01/23 08:31:38;;;;;;;17.77;11.13;;;;;;;;;;5053234;28;20041;-62
2023/01/23 08:34:04;;;;;;;21.67;11.30;;;;;;;;;;5068457;28;20047;-62
2023/01/23 08:36:30;;;;;;;23.30;11.25;;;;;;;;;;5069721;28;20111;-63
2023/01/23 08:38:56;;;;;;;22.38;10.52;;;;;;;;;;5071976;28;20040;-62
2023/01/23 08:41:22;;;;;;;20.75;10.55;;;;;;;;;;5061997;28;20044;-62
2023/01/23 08:43:48;;;;;;;18.48;10.82;;;;;;;;;;5055375;28;20106;-62
2023/01/23 08:46:14;;;;;;;18.10;9.82;;;;;;;;;;5062468;28;20045;-62
2023/01/23 08:48:40;;;;;;;21.17;10.82;;;;;;;;;;5053074;28;20132;-63
2023/01/23 08:51:08;;;;;;;18.98;10.60;;;;;;;;;;5061708;28;20041;-62
2023/01/23 08:53:34;;;;;;;16.92;10.15;;;;;;;;;;5060265;28;20548;-62
2023/01/23 08:56:07;;;;;;;18.83;10.52;;;;;;;;;;5073898;28;20044;-62
2023/01/23 08:58:34;;;;;;;18.95;10.90;;;;;;;;;;5066214;28;20558;-62
2023/01/23 09:01:00;;;;;;;20.38;10.30;;;;;;;;;;5064266;28;20490;-62
2023/01/23 09:03:26;;;;;;;16.55;9.40;;;;;;;;;;5060110;28;20111;-62
2023/01/23 09:05:52;;;;;;;14.73;9.52;;;;;;;;;;5072007;28;20037;-62
2023/01/23 09:08:18;;;;;;;17.13;9.63;;;;;;;;;;5087398;22;21019;-66
2023/01/23 09:10:44;;;;;;;15.45;9.65;;;;;;;;;;5062511;28;20513;-66
2023/01/23 09:13:10;;;;;;;18.83;9.85;;;;;;;;;;5073495;28;20036;-67
2023/01/23 09:15:39;;;;;;;19.10;10.27;;;;;;;;;;5093833;28;20051;-67
2023/01/23 09:18:05;;;;;;;15.15;9.27;;;;;;;;;;5093996;28;20570;-67
2023/01/23 09:20:31;;;;;;;16.35;9.57;;;;;;;;;;5074090;28;20490;-66
2023/01/23 09:22:57;;;;;;;18.02;9.70;;;;;;;;;;5073424;28;20036;-66
2023/01/23 09:25:23;;;;;;;14.65;9.00;;;;;;;;;;5073108;28;20036;-67
2023/01/23 09:27:50;;;;;;;13.98;8.38;;;;;;;;;;5071665;28;20486;-67
2023/01/23 09:30:16;;;;;;;15.38;8.75;;;;;;;;;;5080948;28;20107;-66
2023/01/23 09:32:42;;;;;;;14.68;8.85;;;;;;;;;;5073202;28;20044;-66
2023/01/23 09:35:09;;;;;;;14.18;8.68;;;;;;;;;;5072055;28;20036;-67
2023/01/23 09:40:48;;;;;;;14.68;8.63;;;;;;;;;;4968479;28;20055;-66
2023/01/23 09:43:17;;;;;;;14.75;9.15;;;;;;;;;;4971865;28;20122;-66
2023/01/23 09:45:46;;;;;;;15.55;8.70;;;;;;;;;;5025998;28;20049;-66
2023/01/23 09:48:17;;;;;;;14.27;7.80;;;;;;;;;;5067663;28;20047;-66
2023/01/23 09:51:04;;;;;;;15.38;8.13;;;;;;;;;;5071371;28;20043;-67
2023/01/23 09:53:35;;;;;;;11.02;7.95;;;;;;;;;;5060586;28;20079;-66
2023/01/23 09:56:24;;;;;;;13.55;7.82;;;;;;;;;;5045752;28;20072;-66
2023/01/23 09:59:11;;;;;;;16.67;8.57;;;;;;;;;;5069656;28;20059;-66
2023/01/23 10:01:38;;;;;;;16.02;8.52;;;;;;;;;;5067972;28;20037;-66
2023/01/23 10:04:04;;;;;;;15.20;8.00;;;;;;;;;;5070316;28;20038;-67
2023/01/23 10:06:44;;;;;;;12.40;8.38;;;;;;;;;;5054680;28;20044;-66
2023/01/23 10:09:29;;;;;;;14.20;8.60;;;;;;;;;;5072045;28;20394;-67
2023/01/23 10:11:58;;;;;;;13.18;7.88;;;;;;;;;;5072260;28;20044;-66
2023/01/23 10:14:27;;;;;;;16.55;8.40;;;;;;;;;;5071046;28;20044;-67
2023/01/23 10:17:19;;;;;;;13.68;8.50;;;;;;;;;;5068954;28;20131;-67
2023/01/23 10:19:49;;;;;;;13.90;7.82;;;;;;;;;;5074795;28;20070;-66
2023/01/23 10:22:15;;;;;;;14.52;8.70;;;;;;;;;;5079903;28;20040;-66
2023/01/23 10:24:49;;;;;;;14.88;8.63;;;;;;;;;;5070499;28;20040;-66
2023/01/23 10:27:23;;;;;;;15.35;8.70;;;;;;;;;;5071316;28;20063;-67
2023/01/23 10:29:52;;;;;;;11.98;7.68;;;;;;;;;;5071064;28;20072;-67
2023/01/23 10:32:24;;;;;;;14.15;7.97;;;;;;;;;;5084022;28;20595;-67
2023/01/23 10:34:54;;;;;;;15.57;8.50;;;;;;;;;;5078486;28;20055;-67
2023/01/23 10:37:25;;;;;;;15.33;8.47;;;;;;;;;;5077274;28;20071;-67
2023/01/23 10:39:57;;;;;;;13.55;7.93;;;;;;;;;;5080701;28;20074;-66
2023/01/23 10:42:25;;;;;;;14.50;8.07;;;;;;;;;;5070967;28;20174;-66
2023/01/23 10:44:51;;;;;;;15.02;8.98;;;;;;;;;;5071283;28;20032;-66
2023/01/23 10:47:19;;;;;;;13.00;8.30;;;;;;;;;;5070619;28;20040;-66
2023/01/23 10:49:46;;;;;;;15.32;8.43;;;;;;;;;;5070184;28;20115;-66
2023/01/23 10:52:32;;;;;;;11.93;7.70;;;;;;;;;;5071519;28;20501;-66
2023/01/23 10:54:58;;;;;;;12.30;8.00;;;;;;;;;;5070917;28;20044;-67
2023/01/23 10:57:45;;;;;;;13.73;8.02;;;;;;;;;;5070808;28;20394;-67
2023/01/23 11:00:17;;;;;;;13.52;7.85;;;;;;;;;;5069440;28;20036;-66
2023/01/23 11:02:43;;;;;;;15.25;7.95;;;;;;;;;;5061709;28;20115;-66
2023/01/23 11:05:28;;;;;;;13.23;8.25;;;;;;;;;;5070429;28;20040;-66
2023/01/23 11:07:54;;;;;;;18.80;9.32;;;;;;;;;;5071671;28;20076;-67
2023/01/23 11:10:21;;;;;;;15.07;8.85;;;;;;;;;;5070824;28;20521;-67
2023/01/23 11:12:49;;;;;;;14.75;8.95;;;;;;;;;;5070024;28;20048;-67
2023/01/23 11:15:22;;;;;;;14.02;8.45;;;;;;;;;;5051307;28;20078;-67
2023/01/23 11:17:49;;;;;;;14.90;8.52;;;;;;;;;;5070414;28;20123;-66
2023/01/23 11:20:23;;;;;;;15.48;8.25;;;;;;;;;;5070176;28;20040;-66
2023/01/23 11:22:59;;;;;;;12.30;7.70;;;;;;;;;;5069517;28;20548;-67
2023/01/23 11:25:30;;;;;;;13.82;7.57;;;;;;;;;;5069397;28;20033;-67
2023/01/23 11:27:57;;;;;;;14.65;8.55;;;;;;;;;;5071668;28;20053;-67
2023/01/23 11:30:29;;;;;;;14.27;7.93;;;;;;;;;;5071202;28;20036;-66
2023/01/23 11:33:00;;;;;;;17.55;8.77;;;;;;;;;;5073775;28;20111;-67
2023/01/23 11:35:38;;;;;;;13.80;8.55;;;;;;;;;;5080517;28;20028;-67
2023/01/23 11:38:04;;;;;;;13.68;6.85;;;;;;;;;;5066102;28;20040;-67
2023/01/23 11:40:30;;;;;;;14.63;8.90;;;;;;;;;;5073731;28;20039;-67
2023/01/23 11:42:56;;;;;;;13.05;8.93;;;;;;;;;;5094651;28;20040;-67
2023/01/23 11:45:42;;;;;;;16.27;9.05;;;;;;;;;;5086619;28;20039;-67
2023/01/23 11:48:30;;;;;;;13.80;7.93;;;;;;;;;;5080670;28;20119;-67
2023/01/23 11:51:02;;;;;;;15.32;8.13;;;;;;;;;;5073966;28;20086;-67
2023/01/23 11:53:33;;;;;;;14.93;8.65;;;;;;;;;;5083141;28;20045;-67
2023/01/23 11:55:59;;;;;;;17.40;9.50;;;;;;;;;;5073879;28;20394;-67
2023/01/23 11:58:44;;;;;;;16.23;9.45;;;;;;;;;;5074169;28;20045;-67
2023/01/23 12:01:16;;;;;;;13.95;8.70;;;;;;;;;;5062197;28;20186;-67
2023/01/23 12:03:42;;;;;;;18.10;9.35;;;;;;;;;;5070981;28;20052;-67
2023/01/23 12:06:20;;;;;;;14.27;9.13;;;;;;;;;;5077396;28;20521;-67
2023/01/23 12:08:52;;;;;;;14.45;9.68;;;;;;;;;;5081409;28;20040;-67
2023/01/23 12:11:21;;;;;;;13.27;7.68;;;;;;;;;;5080002;28;20044;-67
2023/01/23 12:13:53;;;;;;;12.90;8.27;;;;;;;;;;5074719;28;20057;-67
2023/01/23 12:16:28;;;;;;;13.55;7.88;;;;;;;;;;5070503;28;20125;-67
2023/01/23 12:19:03;;;;;;;13.93;8.52;;;;;;;;;;5073604;28;20071;-67
2023/01/23 12:21:32;;;;;;;13.60;8.18;;;;;;;;;;5086189;28;20035;-67
2023/01/23 12:24:01;;;;;;;13.15;8.18;;;;;;;;;;5092980;28;20505;-67
2023/01/23 12:26:28;;;;;;;15.80;8.18;;;;;;;;;;5089365;28;20047;-67
2023/01/23 12:29:09;;;;;;;14.70;8.10;;;;;;;;;;5087821;28;20096;-67
2023/01/23 12:31:56;;;;;;;15.80;8.93;;;;;;;;;;5076995;28;20033;-67
2023/01/23 12:34:28;;;;;;;14.95;8.73;;;;;;;;;;5067288;28;20033;-67
2023/01/23 12:37:05;;;;;;;15.40;8.55;;;;;;;;;;5089447;28;20539;-67
2023/01/23 12:39:50;;;;;;;14.77;8.90;;;;;;;;;;5074715;28;20375;-67
2023/01/23 12:42:21;;;;;;;18.35;8.98;;;;;;;;;;5067342;28;20525;-67
2023/01/23 12:44:47;;;;;;;15.63;7.97;;;;;;;;;;5072394;28;20078;-68
2023/01/23 12:47:15;;;;;;;14.23;8.32;;;;;;;;;;5073144;28;20044;-67
2023/01/23 12:49:41;;;;;;;15.52;8.80;;;;;;;;;;5074833;28;20036;-68
2023/01/23 12:52:07;;;;;;;15.50;8.45;;;;;;;;;;5073590;28;20381;-67
2023/01/23 12:54:45;;;;;;;15.23;8.07;;;;;;;;;;5072887;28;20035;-67
2023/01/23 12:57:12;;;;;;;17.10;8.60;;;;;;;;;;5060978;28;20047;-67
2023/01/23 12:59:38;;;;;;;14.70;8.55;;;;;;;;;;5068772;28;20113;-67
2023/01/23 13:02:22;;;;;;;15.50;9.45;;;;;;;;;;5089611;28;20103;-67
2023/01/23 13:05:10;;;;;;;15.75;8.60;;;;;;;;;;5074195;28;20490;-67
2023/01/23 13:07:48;;;;;;;16.83;9.75;;;;;;;;;;5078023;28;20032;-67
2023/01/23 13:10:21;;;;;;;12.48;8.40;;;;;;;;;;5075164;28;20039;-67
2023/01/23 13:12:47;;;;;;;16.05;8.70;;;;;;;;;;5073357;28;20040;-67
2023/01/23 13:15:16;;;;;;;14.82;8.27;;;;;;;;;;5084019;28;20068;-67
2023/01/23 13:17:58;;;;;;;18.20;9.35;;;;;;;;;;5076271;28;20040;-67
2023/01/23 13:23:23;;;;;;;15.85;9.35;;;;;;;;;;5066400;28;20052;-67
2023/01/23 13:25:50;;;;;;;16.42;9.55;;;;;;;;;;5071194;28;20516;-67
2023/01/23 13:28:29;;;;;;;16.50;9.30;;;;;;;;;;5071351;28;20032;-67
2023/01/23 13:30:58;;;;;;;14.73;9.52;;;;;;;;;;5078933;28;20498;-67
2023/01/23 13:33:33;;;;;;;16.58;8.80;;;;;;;;;;5077700;28;20039;-67
2023/01/23 13:36:26;;;;;;;14.63;8.80;;;;;;;;;;5070918;28;20120;-67
2023/01/23 13:39:04;;;;;;;16.10;8.98;;;;;;;;;;5071893;28;20048;-67
2023/01/23 13:41:31;;;;;;;15.60;9.23;;;;;;;;;;5080593;28;20445;-67
2023/01/23 13:44:16;;;;;;;14.98;9.02;;;;;;;;;;5070632;28;20045;-67
2023/01/23 13:46:52;;;;;;;15.38;8.43;;;;;;;;;;5086995;28;20102;-67
2023/01/23 13:57:38;;;;;;;16.13;9.25;;;;;;;;;;5073803;28;20051;-67
2023/01/23 14:00:06;;;;;;;18.45;10.00;;;;;;;;;;5071743;28;20032;-67
2023/01/23 14:05:31;;;;;;;18.25;10.48;;;;;;;;;;5070596;28;20165;-68
2023/01/23 14:08:05;;;;;;;21.23;9.75;;;;;;;;;;5082221;28;20044;-67
2023/01/23 14:10:32;;;;;;;18.90;10.07;;;;;;;;;;5091388;28;20040;-68
2023/01/23 14:13:10;;;;;;;17.70;10.55;;;;;;;;;;5049927;28;20166;-68
2023/01/23 14:18:22;;;;;;;18.58;10.23;;;;;;;;;;5069965;28;20128;-68
2023/01/23 14:20:50;;;;;;;19.60;10.98;;;;;;;;;;5080373;28;20131;-68
2023/01/23 14:23:27;;;;;;;18.00;9.43;;;;;;;;;;5071423;28;20090;-67
2023/01/23 14:25:53;;;;;;;22.65;11.68;;;;;;;;;;5073917;28;20049;-68
2023/01/23 14:28:19;;;;;;;18.30;10.68;;;;;;;;;;5091037;28;20044;-68
2023/01/23 14:31:01;;;;;;;18.15;10.32;;;;;;;;;;5072221;28;20044;-68
2023/01/23 14:33:27;;;;;;;20.88;9.88;;;;;;;;;;5071859;28;20102;-68
2023/01/23 14:35:55;;;;;;;20.13;10.98;;;;;;;;;;5071130;28;20044;-68
2023/01/23 14:38:28;;;;;;;19.15;10.60;;;;;;;;;;5077285;28;20085;-68
2023/01/23 14:40:55;;;;;;;16.50;10.25;;;;;;;;;;5080725;28;20071;-68
2023/01/23 14:43:23;;;;;;;18.60;10.45;;;;;;;;;;5069374;28;20044;-68
2023/01/23 14:45:51;;;;;;;17.70;10.40;;;;;;;;;;5072426;28;20127;-68
2023/01/23 14:48:20;;;;;;;20.88;11.65;;;;;;;;;;5070520;28;20090;-68
2023/01/23 14:50:46;;;;;;;18.30;10.30;;;;;;;;;;5071655;28;20105;-68
2023/01/23 14:53:13;;;;;;;20.70;10.55;;;;;;;;;;5071326;28;20123;-68
2023/01/23 14:55:40;;;;;;;21.15;10.75;;;;;;;;;;5071931;28;20557;-68
2023/01/23 14:58:09;;;;;;;19.00;11.18;;;;;;;;;;5061494;28;20399;-68
2023/01/23 15:00:35;;;;;;;18.90;10.95;;;;;;;;;;5080192;28;20043;-68